sensor_id;sensor_type;location;lat;lon;timestamp;P1;durP1;ratioP1;P2;durP2;ratioP2
74679;SDS011;63211;48.548;2.704;2022-12-10T00:01:44;3.47;;;1.33;;
74679;SDS011;63211;48.548;2.704;2022-12-10T00:04:12;3.20;;;1.17;;
74679;SDS011;63211;48.548;2.704;2022-12-10T00:06:39;2.42;;;1.30;;
74679;SDS011;63211;48.548;2.704;2022-12-10T00:09:07;2.35;;;1.13;;
74679;SDS011;63211;48.548;2.704;2022-12-10T00:11:36;2.33;;;1.17;;
74679;SDS011;63211;48.548;2.704;2022-12-10T00:14:03;2.60;;;1.35;;
74679;SDS011;63211;48.548;2.704;2022-12-10T00:16:33;2.03;;;0.98;;
74679;SDS011;63211;48.548;2.704;2022-12-10T00:19:00;2.83;;;1.10;;
74679;SDS011;63211;48.548;2.704;2022-12-10T00:21:28;2.85;;;1.33;;
74679;SDS011;63211;48.548;2.704;2022-12-10T00:23:56;5.60;;;1.33;;
74679;SDS011;63211;48.548;2.704;2022-12-10T00:26:23;2.78;;;0.90;;
74679;SDS011;63211;48.548;2.704;2022-12-10T00:28:51;3.47;;;1.10;;
74679;SDS011;63211;48.548;2.704;2022-12-10T00:31:19;8.20;;;1.20;;
74679;SDS011;63211;48.548;2.704;2022-12-10T00:33:48;3.75;;;0.98;;
74679;SDS011;63211;48.548;2.704;2022-12-10T00:36:16;4.00;;;1.35;;
74679;SDS011;63211;48.548;2.704;2022-12-10T00:38:44;2.88;;;1.10;;
74679;SDS011;63211;48.548;2.704;2022-12-10T00:41:11;4.07;;;1.10;;
74679;SDS011;63211;48.548;2.704;2022-12-10T00:43:38;3.45;;;1.13;;
74679;SDS011;63211;48.548;2.704;2022-12-10T00:46:05;4.95;;;0.98;;
74679;SDS011;63211;48.548;2.704;2022-12-10T00:48:33;3.75;;;1.23;;
74679;SDS011;63211;48.548;2.704;2022-12-10T00:51:02;3.17;;;1.40;;
74679;SDS011;63211;48.548;2.704;2022-12-10T00:55:58;3.97;;;1.00;;
74679;SDS011;63211;48.548;2.704;2022-12-10T00:58:26;3.40;;;1.13;;
74679;SDS011;63211;48.548;2.704;2022-12-10T01:00:53;2.50;;;0.88;;
74679;SDS011;63211;48.548;2.704;2022-12-10T01:03:20;2.63;;;1.05;;
74679;SDS011;63211;48.548;2.704;2022-12-10T01:05:47;3.53;;;1.50;;
74679;SDS011;63211;48.548;2.704;2022-12-10T01:08:15;2.08;;;1.10;;
74679;SDS011;63211;48.548;2.704;2022-12-10T01:10:41;2.30;;;0.88;;
74679;SDS011;63211;48.548;2.704;2022-12-10T01:13:08;1.75;;;0.75;;
74679;SDS011;63211;48.548;2.704;2022-12-10T01:15:36;2.60;;;0.98;;
74679;SDS011;63211;48.548;2.704;2022-12-10T01:18:04;2.53;;;1.08;;
74679;SDS011;63211;48.548;2.704;2022-12-10T01:20:33;2.67;;;1.13;;
74679;SDS011;63211;48.548;2.704;2022-12-10T01:23:01;2.45;;;1.20;;
74679;SDS011;63211;48.548;2.704;2022-12-10T01:25:29;2.20;;;0.77;;
74679;SDS011;63211;48.548;2.704;2022-12-10T01:27:56;2.33;;;0.77;;
74679;SDS011;63211;48.548;2.704;2022-12-10T01:30:23;2.17;;;0.75;;
74679;SDS011;63211;48.548;2.704;2022-12-10T01:32:49;4.72;;;0.98;;
74679;SDS011;63211;48.548;2.704;2022-12-10T01:35:16;2.13;;;0.98;;
74679;SDS011;63211;48.548;2.704;2022-12-10T01:37:42;4.30;;;0.75;;
74679;SDS011;63211;48.548;2.704;2022-12-10T01:40:09;1.38;;;0.70;;
74679;SDS011;63211;48.548;2.704;2022-12-10T01:42:38;2.70;;;0.98;;
74679;SDS011;63211;48.548;2.704;2022-12-10T01:45:07;1.27;;;0.52;;
74679;SDS011;63211;48.548;2.704;2022-12-10T01:47:36;2.80;;;1.08;;
74679;SDS011;63211;48.548;2.704;2022-12-10T01:50:03;1.77;;;0.70;;
74679;SDS011;63211;48.548;2.704;2022-12-10T01:52:30;2.28;;;0.85;;
74679;SDS011;63211;48.548;2.704;2022-12-10T01:54:57;1.80;;;0.80;;
74679;SDS011;63211;48.548;2.704;2022-12-10T01:57:24;1.58;;;0.70;;
74679;SDS011;63211;48.548;2.704;2022-12-10T01:59:54;1.60;;;0.80;;
74679;SDS011;63211;48.548;2.704;2022-12-10T02:02:28;4.20;;;0.80;;
74679;SDS011;63211;48.548;2.704;2022-12-10T02:05:08;1.52;;;0.75;;
74679;SDS011;63211;48.548;2.704;2022-12-10T02:07:48;2.72;;;0.95;;
74679;SDS011;63211;48.548;2.704;2022-12-10T02:10:24;2.25;;;0.70;;
74679;SDS011;63211;48.548;2.704;2022-12-10T02:13:04;2.33;;;0.80;;
74679;SDS011;63211;48.548;2.704;2022-12-10T02:15:36;1.92;;;0.70;;
74679;SDS011;63211;48.548;2.704;2022-12-10T02:18:08;2.92;;;0.90;;
74679;SDS011;63211;48.548;2.704;2022-12-10T02:20:38;1.30;;;0.68;;
74679;SDS011;63211;48.548;2.704;2022-12-10T02:23:09;1.23;;;0.60;;
74679;SDS011;63211;48.548;2.704;2022-12-10T02:25:41;2.95;;;1.02;;
74679;SDS011;63211;48.548;2.704;2022-12-10T02:28:13;1.77;;;0.77;;
74679;SDS011;63211;48.548;2.704;2022-12-10T02:30:50;1.65;;;0.80;;
74679;SDS011;63211;48.548;2.704;2022-12-10T02:33:17;1.65;;;0.85;;
74679;SDS011;63211;48.548;2.704;2022-12-10T02:35:46;1.48;;;0.55;;
74679;SDS011;63211;48.548;2.704;2022-12-10T02:38:17;2.10;;;0.80;;
74679;SDS011;63211;48.548;2.704;2022-12-10T02:40:50;2.10;;;0.90;;
74679;SDS011;63211;48.548;2.704;2022-12-10T02:43:23;2.13;;;0.82;;
74679;SDS011;63211;48.548;2.704;2022-12-10T02:45:54;1.75;;;0.85;;
74679;SDS011;63211;48.548;2.704;2022-12-10T02:48:22;1.98;;;0.80;;
74679;SDS011;63211;48.548;2.704;2022-12-10T02:50:50;1.65;;;0.70;;
74679;SDS011;63211;48.548;2.704;2022-12-10T02:53:17;2.58;;;0.90;;
74679;SDS011;63211;48.548;2.704;2022-12-10T02:55:50;1.63;;;0.60;;
74679;SDS011;63211;48.548;2.704;2022-12-10T02:58:26;3.13;;;1.38;;
74679;SDS011;63211;48.548;2.704;2022-12-10T03:01:01;1.27;;;0.77;;
74679;SDS011;63211;48.548;2.704;2022-12-10T03:03:38;2.45;;;1.08;;
74679;SDS011;63211;48.548;2.704;2022-12-10T03:06:12;1.48;;;0.70;;
74679;SDS011;63211;48.548;2.704;2022-12-10T03:08:45;1.73;;;0.80;;
74679;SDS011;63211;48.548;2.704;2022-12-10T03:11:17;1.23;;;0.50;;
74679;SDS011;63211;48.548;2.704;2022-12-10T03:13:47;1.95;;;0.70;;
74679;SDS011;63211;48.548;2.704;2022-12-10T03:16:22;1.98;;;0.70;;
74679;SDS011;63211;48.548;2.704;2022-12-10T03:18:51;2.35;;;0.70;;
74679;SDS011;63211;48.548;2.704;2022-12-10T03:21:21;2.05;;;0.80;;
74679;SDS011;63211;48.548;2.704;2022-12-10T03:23:50;1.27;;;0.70;;
74679;SDS011;63211;48.548;2.704;2022-12-10T03:26:17;2.60;;;0.68;;
74679;SDS011;63211;48.548;2.704;2022-12-10T03:28:48;1.30;;;0.50;;
74679;SDS011;63211;48.548;2.704;2022-12-10T03:31:17;2.00;;;0.77;;
74679;SDS011;63211;48.548;2.704;2022-12-10T03:33:47;1.75;;;0.90;;
74679;SDS011;63211;48.548;2.704;2022-12-10T03:36:15;1.65;;;0.57;;
74679;SDS011;63211;48.548;2.704;2022-12-10T03:38:45;1.50;;;0.98;;
74679;SDS011;63211;48.548;2.704;2022-12-10T03:41:11;1.50;;;0.70;;
74679;SDS011;63211;48.548;2.704;2022-12-10T03:43:49;1.48;;;0.80;;
74679;SDS011;63211;48.548;2.704;2022-12-10T03:46:16;1.23;;;0.70;;
74679;SDS011;63211;48.548;2.704;2022-12-10T03:48:43;1.00;;;0.60;;
74679;SDS011;63211;48.548;2.704;2022-12-10T03:51:11;1.63;;;0.77;;
74679;SDS011;63211;48.548;2.704;2022-12-10T03:53:38;1.02;;;0.63;;
74679;SDS011;63211;48.548;2.704;2022-12-10T03:56:05;2.65;;;0.80;;
74679;SDS011;63211;48.548;2.704;2022-12-10T03:58:31;1.83;;;0.50;;
74679;SDS011;63211;48.548;2.704;2022-12-10T04:00:58;2.50;;;0.63;;
74679;SDS011;63211;48.548;2.704;2022-12-10T04:03:25;1.27;;;0.57;;
74679;SDS011;63211;48.548;2.704;2022-12-10T04:05:51;0.90;;;0.52;;
74679;SDS011;63211;48.548;2.704;2022-12-10T04:08:19;1.55;;;0.60;;
74679;SDS011;63211;48.548;2.704;2022-12-10T04:10:46;1.52;;;0.63;;
74679;SDS011;63211;48.548;2.704;2022-12-10T04:13:12;2.00;;;0.70;;
74679;SDS011;63211;48.548;2.704;2022-12-10T04:15:57;1.20;;;0.55;;
74679;SDS011;63211;48.548;2.704;2022-12-10T04:18:41;1.20;;;0.43;;
74679;SDS011;63211;48.548;2.704;2022-12-10T04:21:08;1.52;;;0.60;;
74679;SDS011;63211;48.548;2.704;2022-12-10T04:23:53;1.27;;;0.60;;
74679;SDS011;63211;48.548;2.704;2022-12-10T04:26:37;2.17;;;0.80;;
74679;SDS011;63211;48.548;2.704;2022-12-10T04:29:19;2.60;;;1.00;;
74679;SDS011;63211;48.548;2.704;2022-12-10T04:31:46;0.95;;;0.68;;
74679;SDS011;63211;48.548;2.704;2022-12-10T04:34:12;2.47;;;1.15;;
74679;SDS011;63211;48.548;2.704;2022-12-10T04:36:39;1.48;;;0.80;;
74679;SDS011;63211;48.548;2.704;2022-12-10T04:39:07;1.30;;;0.80;;
74679;SDS011;63211;48.548;2.704;2022-12-10T04:41:36;2.05;;;1.00;;
74679;SDS011;63211;48.548;2.704;2022-12-10T04:44:03;1.83;;;0.82;;
74679;SDS011;63211;48.548;2.704;2022-12-10T04:46:31;1.83;;;0.80;;
74679;SDS011;63211;48.548;2.704;2022-12-10T04:48:57;1.23;;;0.52;;
74679;SDS011;63211;48.548;2.704;2022-12-10T04:51:24;1.60;;;0.70;;
74679;SDS011;63211;48.548;2.704;2022-12-10T04:53:51;1.92;;;0.82;;
74679;SDS011;63211;48.548;2.704;2022-12-10T04:56:19;1.35;;;0.55;;
74679;SDS011;63211;48.548;2.704;2022-12-10T04:58:45;1.65;;;0.57;;
74679;SDS011;63211;48.548;2.704;2022-12-10T05:01:12;1.80;;;0.80;;
74679;SDS011;63211;48.548;2.704;2022-12-10T05:03:39;1.48;;;0.63;;
74679;SDS011;63211;48.548;2.704;2022-12-10T05:06:07;2.13;;;0.75;;
74679;SDS011;63211;48.548;2.704;2022-12-10T05:08:36;1.13;;;0.57;;
74679;SDS011;63211;48.548;2.704;2022-12-10T05:11:04;1.48;;;0.68;;
74679;SDS011;63211;48.548;2.704;2022-12-10T05:13:34;1.75;;;0.70;;
74679;SDS011;63211;48.548;2.704;2022-12-10T05:16:01;1.70;;;0.70;;
74679;SDS011;63211;48.548;2.704;2022-12-10T05:18:29;1.35;;;0.60;;
74679;SDS011;63211;48.548;2.704;2022-12-10T05:20:57;1.83;;;0.77;;
74679;SDS011;63211;48.548;2.704;2022-12-10T05:23:24;3.10;;;1.00;;
74679;SDS011;63211;48.548;2.704;2022-12-10T05:26:00;2.47;;;0.85;;
74679;SDS011;63211;48.548;2.704;2022-12-10T05:28:28;1.63;;;0.82;;
74679;SDS011;63211;48.548;2.704;2022-12-10T05:30:57;1.40;;;0.50;;
74679;SDS011;63211;48.548;2.704;2022-12-10T05:33:24;2.03;;;0.80;;
74679;SDS011;63211;48.548;2.704;2022-12-10T05:35:52;2.35;;;0.90;;
74679;SDS011;63211;48.548;2.704;2022-12-10T05:38:19;2.03;;;0.70;;
74679;SDS011;63211;48.548;2.704;2022-12-10T05:40:47;1.88;;;0.88;;
74679;SDS011;63211;48.548;2.704;2022-12-10T05:43:13;1.77;;;0.70;;
74679;SDS011;63211;48.548;2.704;2022-12-10T05:45:40;2.00;;;0.70;;
74679;SDS011;63211;48.548;2.704;2022-12-10T05:48:09;1.90;;;0.65;;
74679;SDS011;63211;48.548;2.704;2022-12-10T05:50:36;1.65;;;0.85;;
74679;SDS011;63211;48.548;2.704;2022-12-10T05:53:03;1.73;;;0.80;;
74679;SDS011;63211;48.548;2.704;2022-12-10T05:55:30;1.15;;;0.57;;
74679;SDS011;63211;48.548;2.704;2022-12-10T05:57:58;2.92;;;1.13;;
74679;SDS011;63211;48.548;2.704;2022-12-10T06:00:25;2.65;;;1.02;;
74679;SDS011;63211;48.548;2.704;2022-12-10T06:02:51;1.65;;;0.73;;
74679;SDS011;63211;48.548;2.704;2022-12-10T06:05:19;2.08;;;0.90;;
74679;SDS011;63211;48.548;2.704;2022-12-10T06:07:46;3.35;;;0.90;;
74679;SDS011;63211;48.548;2.704;2022-12-10T06:10:13;2.22;;;0.88;;
74679;SDS011;63211;48.548;2.704;2022-12-10T06:12:39;1.63;;;0.80;;
74679;SDS011;63211;48.548;2.704;2022-12-10T06:15:06;1.92;;;1.00;;
74679;SDS011;63211;48.548;2.704;2022-12-10T06:17:34;2.05;;;0.82;;
74679;SDS011;63211;48.548;2.704;2022-12-10T06:20:01;1.77;;;0.80;;
74679;SDS011;63211;48.548;2.704;2022-12-10T06:22:29;2.30;;;0.90;;
74679;SDS011;63211;48.548;2.704;2022-12-10T06:24:55;2.05;;;1.00;;
74679;SDS011;63211;48.548;2.704;2022-12-10T06:27:22;2.42;;;0.82;;
74679;SDS011;63211;48.548;2.704;2022-12-10T06:29:49;1.95;;;0.93;;
74679;SDS011;63211;48.548;2.704;2022-12-10T06:32:15;2.30;;;0.90;;
74679;SDS011;63211;48.548;2.704;2022-12-10T06:34:42;1.80;;;0.90;;
74679;SDS011;63211;48.548;2.704;2022-12-10T06:37:08;2.33;;;1.17;;
74679;SDS011;63211;48.548;2.704;2022-12-10T06:39:37;1.92;;;1.08;;
74679;SDS011;63211;48.548;2.704;2022-12-10T06:42:03;2.22;;;0.82;;
74679;SDS011;63211;48.548;2.704;2022-12-10T06:44:30;2.45;;;1.20;;
74679;SDS011;63211;48.548;2.704;2022-12-10T06:46:57;2.40;;;1.02;;
74679;SDS011;63211;48.548;2.704;2022-12-10T06:49:24;3.08;;;0.85;;
74679;SDS011;63211;48.548;2.704;2022-12-10T06:51:51;2.22;;;0.82;;
74679;SDS011;63211;48.548;2.704;2022-12-10T06:54:17;2.40;;;0.95;;
74679;SDS011;63211;48.548;2.704;2022-12-10T06:56:45;2.08;;;0.82;;
74679;SDS011;63211;48.548;2.704;2022-12-10T06:59:12;1.92;;;1.10;;
74679;SDS011;63211;48.548;2.704;2022-12-10T07:01:38;1.63;;;0.88;;
74679;SDS011;63211;48.548;2.704;2022-12-10T07:04:05;2.33;;;1.10;;
74679;SDS011;63211;48.548;2.704;2022-12-10T07:06:32;3.17;;;1.33;;
74679;SDS011;63211;48.548;2.704;2022-12-10T07:08:59;6.43;;;2.10;;
74679;SDS011;63211;48.548;2.704;2022-12-10T07:11:25;9.38;;;1.95;;
74679;SDS011;63211;48.548;2.704;2022-12-10T07:13:53;6.88;;;1.95;;
74679;SDS011;63211;48.548;2.704;2022-12-10T07:16:21;6.35;;;2.05;;
74679;SDS011;63211;48.548;2.704;2022-12-10T07:18:50;7.20;;;2.35;;
74679;SDS011;63211;48.548;2.704;2022-12-10T07:21:18;6.40;;;2.45;;
74679;SDS011;63211;48.548;2.704;2022-12-10T07:23:47;4.55;;;2.33;;
74679;SDS011;63211;48.548;2.704;2022-12-10T07:26:14;7.47;;;3.05;;
74679;SDS011;63211;48.548;2.704;2022-12-10T07:28:41;7.25;;;2.85;;
74679;SDS011;63211;48.548;2.704;2022-12-10T07:31:09;5.18;;;2.53;;
74679;SDS011;63211;48.548;2.704;2022-12-10T07:33:36;5.80;;;2.47;;
74679;SDS011;63211;48.548;2.704;2022-12-10T07:36:03;3.78;;;1.95;;
74679;SDS011;63211;48.548;2.704;2022-12-10T07:38:31;4.85;;;2.28;;
74679;SDS011;63211;48.548;2.704;2022-12-10T07:40:57;3.95;;;2.03;;
74679;SDS011;63211;48.548;2.704;2022-12-10T07:43:24;6.43;;;2.33;;
74679;SDS011;63211;48.548;2.704;2022-12-10T07:45:51;3.40;;;1.77;;
74679;SDS011;63211;48.548;2.704;2022-12-10T07:48:19;3.75;;;2.15;;
74679;SDS011;63211;48.548;2.704;2022-12-10T07:50:45;5.50;;;2.20;;
74679;SDS011;63211;48.548;2.704;2022-12-10T07:53:12;4.93;;;2.15;;
74679;SDS011;63211;48.548;2.704;2022-12-10T07:55:38;3.33;;;1.73;;
74679;SDS011;63211;48.548;2.704;2022-12-10T07:58:05;5.80;;;2.38;;
74679;SDS011;63211;48.548;2.704;2022-12-10T08:00:32;8.27;;;2.60;;
74679;SDS011;63211;48.548;2.704;2022-12-10T08:02:58;3.47;;;1.95;;
74679;SDS011;63211;48.548;2.704;2022-12-10T08:05:26;3.65;;;2.10;;
74679;SDS011;63211;48.548;2.704;2022-12-10T08:07:53;5.57;;;2.10;;
74679;SDS011;63211;48.548;2.704;2022-12-10T08:10:20;4.63;;;2.17;;
74679;SDS011;63211;48.548;2.704;2022-12-10T08:12:46;4.18;;;2.00;;
74679;SDS011;63211;48.548;2.704;2022-12-10T08:15:13;4.18;;;1.65;;
74679;SDS011;63211;48.548;2.704;2022-12-10T08:17:39;4.35;;;2.00;;
74679;SDS011;63211;48.548;2.704;2022-12-10T08:20:07;3.80;;;2.15;;
74679;SDS011;63211;48.548;2.704;2022-12-10T08:22:36;3.78;;;1.80;;
74679;SDS011;63211;48.548;2.704;2022-12-10T08:25:03;5.25;;;2.33;;
74679;SDS011;63211;48.548;2.704;2022-12-10T08:27:30;7.65;;;1.83;;
74679;SDS011;63211;48.548;2.704;2022-12-10T08:29:57;4.93;;;2.17;;
74679;SDS011;63211;48.548;2.704;2022-12-10T08:32:23;4.95;;;2.25;;
74679;SDS011;63211;48.548;2.704;2022-12-10T08:34:50;3.90;;;1.88;;
74679;SDS011;63211;48.548;2.704;2022-12-10T08:37:16;7.47;;;2.63;;
74679;SDS011;63211;48.548;2.704;2022-12-10T08:39:44;4.47;;;2.22;;
74679;SDS011;63211;48.548;2.704;2022-12-10T08:42:11;3.88;;;1.85;;
74679;SDS011;63211;48.548;2.704;2022-12-10T08:44:38;4.00;;;2.08;;
74679;SDS011;63211;48.548;2.704;2022-12-10T08:47:04;3.83;;;1.92;;
74679;SDS011;63211;48.548;2.704;2022-12-10T08:49:31;3.15;;;1.70;;
74679;SDS011;63211;48.548;2.704;2022-12-10T08:51:58;3.80;;;1.90;;
74679;SDS011;63211;48.548;2.704;2022-12-10T08:54:25;4.45;;;2.08;;
74679;SDS011;63211;48.548;2.704;2022-12-10T08:56:53;4.03;;;2.03;;
74679;SDS011;63211;48.548;2.704;2022-12-10T08:59:19;4.65;;;2.17;;
74679;SDS011;63211;48.548;2.704;2022-12-10T09:01:46;5.22;;;2.42;;
74679;SDS011;63211;48.548;2.704;2022-12-10T09:04:13;4.68;;;2.10;;
74679;SDS011;63211;48.548;2.704;2022-12-10T09:06:40;3.13;;;1.58;;
74679;SDS011;63211;48.548;2.704;2022-12-10T09:09:07;6.32;;;2.38;;
74679;SDS011;63211;48.548;2.704;2022-12-10T09:11:34;4.15;;;1.70;;
74679;SDS011;63211;48.548;2.704;2022-12-10T09:14:03;4.22;;;2.00;;
74679;SDS011;63211;48.548;2.704;2022-12-10T09:16:30;3.60;;;1.80;;
74679;SDS011;63211;48.548;2.704;2022-12-10T09:18:58;5.38;;;2.22;;
74679;SDS011;63211;48.548;2.704;2022-12-10T09:21:26;4.07;;;2.15;;
74679;SDS011;63211;48.548;2.704;2022-12-10T09:23:54;4.68;;;2.10;;
74679;SDS011;63211;48.548;2.704;2022-12-10T09:26:21;4.75;;;1.70;;
74679;SDS011;63211;48.548;2.704;2022-12-10T09:28:48;4.15;;;1.90;;
74679;SDS011;63211;48.548;2.704;2022-12-10T09:31:17;3.90;;;2.30;;
74679;SDS011;63211;48.548;2.704;2022-12-10T09:33:45;4.20;;;1.90;;
74679;SDS011;63211;48.548;2.704;2022-12-10T09:36:13;3.50;;;1.90;;
74679;SDS011;63211;48.548;2.704;2022-12-10T09:38:41;4.97;;;2.00;;
74679;SDS011;63211;48.548;2.704;2022-12-10T09:41:14;4.72;;;2.17;;
74679;SDS011;63211;48.548;2.704;2022-12-10T09:43:52;3.95;;;1.80;;
74679;SDS011;63211;48.548;2.704;2022-12-10T09:46:38;3.35;;;1.90;;
74679;SDS011;63211;48.548;2.704;2022-12-10T09:49:13;3.45;;;1.85;;
74679;SDS011;63211;48.548;2.704;2022-12-10T09:51:47;3.47;;;1.83;;
74679;SDS011;63211;48.548;2.704;2022-12-10T09:54:16;3.97;;;1.85;;
74679;SDS011;63211;48.548;2.704;2022-12-10T09:56:45;4.60;;;1.77;;
74679;SDS011;63211;48.548;2.704;2022-12-10T09:59:15;3.80;;;1.70;;
74679;SDS011;63211;48.548;2.704;2022-12-10T10:01:47;5.03;;;2.22;;
74679;SDS011;63211;48.548;2.704;2022-12-10T10:04:26;4.82;;;2.22;;
74679;SDS011;63211;48.548;2.704;2022-12-10T10:06:52;4.13;;;2.10;;
74679;SDS011;63211;48.548;2.704;2022-12-10T10:09:19;3.65;;;1.70;;
74679;SDS011;63211;48.548;2.704;2022-12-10T10:11:47;3.20;;;1.70;;
74679;SDS011;63211;48.548;2.704;2022-12-10T10:14:16;3.38;;;1.88;;
74679;SDS011;63211;48.548;2.704;2022-12-10T10:16:52;3.40;;;1.75;;
74679;SDS011;63211;48.548;2.704;2022-12-10T10:19:25;3.90;;;1.85;;
74679;SDS011;63211;48.548;2.704;2022-12-10T10:21:56;4.13;;;2.00;;
74679;SDS011;63211;48.548;2.704;2022-12-10T10:24:33;3.08;;;1.45;;
74679;SDS011;63211;48.548;2.704;2022-12-10T10:27:04;3.55;;;1.55;;
74679;SDS011;63211;48.548;2.704;2022-12-10T10:29:38;4.15;;;1.85;;
74679;SDS011;63211;48.548;2.704;2022-12-10T10:32:14;3.72;;;1.75;;
74679;SDS011;63211;48.548;2.704;2022-12-10T10:34:43;3.85;;;1.92;;
74679;SDS011;63211;48.548;2.704;2022-12-10T10:37:15;3.28;;;1.80;;
74679;SDS011;63211;48.548;2.704;2022-12-10T10:39:48;3.25;;;1.75;;
74679;SDS011;63211;48.548;2.704;2022-12-10T10:42:21;3.10;;;1.73;;
74679;SDS011;63211;48.548;2.704;2022-12-10T10:44:54;2.85;;;1.70;;
74679;SDS011;63211;48.548;2.704;2022-12-10T10:47:26;4.32;;;1.40;;
74679;SDS011;63211;48.548;2.704;2022-12-10T10:49:54;4.53;;;1.98;;
74679;SDS011;63211;48.548;2.704;2022-12-10T10:52:21;3.97;;;1.88;;
74679;SDS011;63211;48.548;2.704;2022-12-10T10:54:48;3.42;;;1.83;;
74679;SDS011;63211;48.548;2.704;2022-12-10T10:57:16;2.78;;;1.55;;
74679;SDS011;63211;48.548;2.704;2022-12-10T10:59:46;3.17;;;1.55;;
74679;SDS011;63211;48.548;2.704;2022-12-10T11:02:18;3.15;;;1.83;;
74679;SDS011;63211;48.548;2.704;2022-12-10T11:04:49;3.30;;;1.50;;
74679;SDS011;63211;48.548;2.704;2022-12-10T11:07:21;3.08;;;1.73;;
74679;SDS011;63211;48.548;2.704;2022-12-10T11:09:52;2.53;;;1.30;;
74679;SDS011;63211;48.548;2.704;2022-12-10T11:12:34;3.00;;;1.50;;
74679;SDS011;63211;48.548;2.704;2022-12-10T11:15:04;4.93;;;1.83;;
74679;SDS011;63211;48.548;2.704;2022-12-10T11:17:54;4.95;;;1.60;;
74679;SDS011;63211;48.548;2.704;2022-12-10T11:20:24;3.05;;;1.58;;
74679;SDS011;63211;48.548;2.704;2022-12-10T11:22:53;3.20;;;1.33;;
74679;SDS011;63211;48.548;2.704;2022-12-10T11:25:25;2.58;;;1.40;;
74679;SDS011;63211;48.548;2.704;2022-12-10T11:27:59;3.58;;;1.70;;
74679;SDS011;63211;48.548;2.704;2022-12-10T11:30:28;2.90;;;1.55;;
74679;SDS011;63211;48.548;2.704;2022-12-10T11:33:04;2.25;;;1.23;;
74679;SDS011;63211;48.548;2.704;2022-12-10T11:35:47;2.83;;;1.40;;
74679;SDS011;63211;48.548;2.704;2022-12-10T11:38:23;3.28;;;1.40;;
74679;SDS011;63211;48.548;2.704;2022-12-10T11:40:55;3.28;;;1.85;;
74679;SDS011;63211;48.548;2.704;2022-12-10T11:43:37;2.97;;;1.40;;
74679;SDS011;63211;48.548;2.704;2022-12-10T11:46:17;2.83;;;1.38;;
74679;SDS011;63211;48.548;2.704;2022-12-10T11:49:00;2.92;;;1.30;;
74679;SDS011;63211;48.548;2.704;2022-12-10T11:51:38;2.40;;;1.13;;
74679;SDS011;63211;48.548;2.704;2022-12-10T11:54:26;2.38;;;1.20;;
74679;SDS011;63211;48.548;2.704;2022-12-10T11:57:05;2.78;;;1.45;;
74679;SDS011;63211;48.548;2.704;2022-12-10T11:59:41;2.97;;;1.15;;
74679;SDS011;63211;48.548;2.704;2022-12-10T12:02:22;2.55;;;1.35;;
74679;SDS011;63211;48.548;2.704;2022-12-10T12:05:09;2.40;;;1.00;;
74679;SDS011;63211;48.548;2.704;2022-12-10T12:07:50;1.95;;;1.00;;
74679;SDS011;63211;48.548;2.704;2022-12-10T12:10:30;2.72;;;1.30;;
74679;SDS011;63211;48.548;2.704;2022-12-10T12:13:12;1.92;;;1.10;;
74679;SDS011;63211;48.548;2.704;2022-12-10T12:15:44;2.85;;;1.13;;
74679;SDS011;63211;48.548;2.704;2022-12-10T12:18:16;1.85;;;1.00;;
74679;SDS011;63211;48.548;2.704;2022-12-10T12:20:48;3.63;;;1.35;;
74679;SDS011;63211;48.548;2.704;2022-12-10T12:23:21;2.80;;;1.48;;
74679;SDS011;63211;48.548;2.704;2022-12-10T12:25:51;3.42;;;1.23;;
74679;SDS011;63211;48.548;2.704;2022-12-10T12:28:22;2.25;;;1.35;;
74679;SDS011;63211;48.548;2.704;2022-12-10T12:30:53;2.58;;;1.40;;
74679;SDS011;63211;48.548;2.704;2022-12-10T12:33:28;3.67;;;1.13;;
74679;SDS011;63211;48.548;2.704;2022-12-10T12:36:00;2.67;;;1.15;;
74679;SDS011;63211;48.548;2.704;2022-12-10T12:38:37;3.65;;;1.67;;
74679;SDS011;63211;48.548;2.704;2022-12-10T12:41:10;4.47;;;1.20;;
74679;SDS011;63211;48.548;2.704;2022-12-10T12:43:43;4.05;;;1.20;;
74679;SDS011;63211;48.548;2.704;2022-12-10T12:46:19;3.75;;;1.55;;
74679;SDS011;63211;48.548;2.704;2022-12-10T12:48:52;3.97;;;1.42;;
74679;SDS011;63211;48.548;2.704;2022-12-10T12:51:24;4.25;;;1.60;;
74679;SDS011;63211;48.548;2.704;2022-12-10T12:53:56;4.80;;;1.60;;
74679;SDS011;63211;48.548;2.704;2022-12-10T12:56:25;3.63;;;1.50;;
74679;SDS011;63211;48.548;2.704;2022-12-10T12:59:17;4.90;;;1.65;;
74679;SDS011;63211;48.548;2.704;2022-12-10T13:01:53;3.10;;;1.60;;
74679;SDS011;63211;48.548;2.704;2022-12-10T13:04:23;5.93;;;1.48;;
74679;SDS011;63211;48.548;2.704;2022-12-10T13:10:07;4.85;;;1.52;;
74679;SDS011;63211;48.548;2.704;2022-12-10T13:12:47;2.95;;;1.50;;
74679;SDS011;63211;48.548;2.704;2022-12-10T13:15:17;5.03;;;1.73;;
74679;SDS011;63211;48.548;2.704;2022-12-10T13:18:00;2.70;;;1.50;;
74679;SDS011;63211;48.548;2.704;2022-12-10T13:20:31;2.92;;;1.27;;
74679;SDS011;63211;48.548;2.704;2022-12-10T13:23:00;2.35;;;1.20;;
74679;SDS011;63211;48.548;2.704;2022-12-10T13:25:40;4.75;;;1.70;;
74679;SDS011;63211;48.548;2.704;2022-12-10T13:28:28;3.30;;;1.63;;
74679;SDS011;63211;48.548;2.704;2022-12-10T13:31:07;3.45;;;1.40;;
74679;SDS011;63211;48.548;2.704;2022-12-10T13:33:46;2.45;;;1.40;;
74679;SDS011;63211;48.548;2.704;2022-12-10T13:36:19;4.35;;;1.88;;
74679;SDS011;63211;48.548;2.704;2022-12-10T13:39:02;2.55;;;1.70;;
74679;SDS011;63211;48.548;2.704;2022-12-10T13:41:41;2.72;;;1.42;;
74679;SDS011;63211;48.548;2.704;2022-12-10T13:44:46;2.63;;;1.52;;
74679;SDS011;63211;48.548;2.704;2022-12-10T13:47:24;3.05;;;1.50;;
74679;SDS011;63211;48.548;2.704;2022-12-10T13:49:53;3.35;;;1.60;;
74679;SDS011;63211;48.548;2.704;2022-12-10T13:52:24;3.05;;;1.45;;
74679;SDS011;63211;48.548;2.704;2022-12-10T13:57:56;4.07;;;2.00;;
74679;SDS011;63211;48.548;2.704;2022-12-10T14:00:41;3.70;;;1.60;;
74679;SDS011;63211;48.548;2.704;2022-12-10T14:03:30;4.78;;;1.42;;
74679;SDS011;63211;48.548;2.704;2022-12-10T14:06:17;3.20;;;1.38;;
74679;SDS011;63211;48.548;2.704;2022-12-10T14:08:51;3.15;;;1.55;;
74679;SDS011;63211;48.548;2.704;2022-12-10T14:11:22;3.85;;;1.60;;
74679;SDS011;63211;48.548;2.704;2022-12-10T14:13:53;5.82;;;1.90;;
74679;SDS011;63211;48.548;2.704;2022-12-10T14:16:23;4.65;;;2.15;;
74679;SDS011;63211;48.548;2.704;2022-12-10T14:18:53;4.80;;;2.13;;
74679;SDS011;63211;48.548;2.704;2022-12-10T14:21:23;4.60;;;2.20;;
74679;SDS011;63211;48.548;2.704;2022-12-10T14:23:52;4.45;;;2.35;;
74679;SDS011;63211;48.548;2.704;2022-12-10T14:26:20;4.80;;;2.33;;
74679;SDS011;63211;48.548;2.704;2022-12-10T14:28:49;6.78;;;2.03;;
74679;SDS011;63211;48.548;2.704;2022-12-10T14:31:18;4.45;;;1.90;;
74679;SDS011;63211;48.548;2.704;2022-12-10T14:36:24;4.38;;;2.00;;
74679;SDS011;63211;48.548;2.704;2022-12-10T14:38:54;4.88;;;2.00;;
74679;SDS011;63211;48.548;2.704;2022-12-10T14:41:22;4.05;;;1.98;;
74679;SDS011;63211;48.548;2.704;2022-12-10T14:43:50;4.78;;;1.67;;
74679;SDS011;63211;48.548;2.704;2022-12-10T14:46:20;3.13;;;1.75;;
74679;SDS011;63211;48.548;2.704;2022-12-10T14:48:50;4.45;;;2.30;;
74679;SDS011;63211;48.548;2.704;2022-12-10T14:51:20;4.57;;;1.92;;
74679;SDS011;63211;48.548;2.704;2022-12-10T14:53:49;4.63;;;2.20;;
74679;SDS011;63211;48.548;2.704;2022-12-10T14:56:19;4.38;;;2.22;;
74679;SDS011;63211;48.548;2.704;2022-12-10T14:58:50;3.58;;;1.92;;
74679;SDS011;63211;48.548;2.704;2022-12-10T15:01:27;4.38;;;1.75;;
74679;SDS011;63211;48.548;2.704;2022-12-10T15:03:56;2.83;;;1.50;;
74679;SDS011;63211;48.548;2.704;2022-12-10T15:06:26;4.20;;;1.80;;
74679;SDS011;63211;48.548;2.704;2022-12-10T15:08:54;4.15;;;1.83;;
74679;SDS011;63211;48.548;2.704;2022-12-10T15:11:24;2.97;;;1.50;;
74679;SDS011;63211;48.548;2.704;2022-12-10T15:13:53;3.50;;;1.80;;
74679;SDS011;63211;48.548;2.704;2022-12-10T15:16:29;3.67;;;1.92;;
74679;SDS011;63211;48.548;2.704;2022-12-10T15:19:07;3.90;;;2.00;;